sensor_id;sensor_type;location;lat;lon;timestamp;P1;durP1;ratioP1;P2;durP2;ratioP2
47531;SDS011;33273;52.254;7.988;2023-09-19T00:00:42;8.48;;;3.05;;
47531;SDS011;33273;52.254;7.988;2023-09-19T00:03:09;9.40;;;3.38;;
47531;SDS011;33273;52.254;7.988;2023-09-19T00:05:37;9.38;;;3.22;;
47531;SDS011;33273;52.254;7.988;2023-09-19T00:08:04;7.60;;;3.17;;
47531;SDS011;33273;52.254;7.988;2023-09-19T00:10:31;9.30;;;3.05;;
47531;SDS011;33273;52.254;7.988;2023-09-19T00:13:00;8.35;;;2.78;;
47531;SDS011;33273;52.254;7.988;2023-09-19T00:15:30;8.38;;;2.92;;
47531;SDS011;33273;52.254;7.988;2023-09-19T00:18:01;6.55;;;3.05;;
47531;SDS011;33273;52.254;7.988;2023-09-19T00:20:27;5.13;;;3.00;;
47531;SDS011;33273;52.254;7.988;2023-09-19T00:22:55;9.68;;;2.97;;
47531;SDS011;33273;52.254;7.988;2023-09-19T00:25:21;7.87;;;2.87;;
47531;SDS011;33273;52.254;7.988;2023-09-19T00:27:47;9.40;;;3.57;;
47531;SDS011;33273;52.254;7.988;2023-09-19T00:30:17;7.57;;;2.80;;
47531;SDS011;33273;52.254;7.988;2023-09-19T00:32:47;8.20;;;3.78;;
47531;SDS011;33273;52.254;7.988;2023-09-19T00:35:14;9.13;;;3.40;;
47531;SDS011;33273;52.254;7.988;2023-09-19T00:37:42;14.07;;;3.67;;
47531;SDS011;33273;52.254;7.988;2023-09-19T00:40:09;7.13;;;3.00;;
47531;SDS011;33273;52.254;7.988;2023-09-19T00:42:40;10.68;;;2.92;;
47531;SDS011;33273;52.254;7.988;2023-09-19T00:45:10;10.02;;;3.20;;
47531;SDS011;33273;52.254;7.988;2023-09-19T00:47:39;9.32;;;3.67;;
47531;SDS011;33273;52.254;7.988;2023-09-19T00:50:06;10.00;;;3.00;;
47531;SDS011;33273;52.254;7.988;2023-09-19T00:52:34;9.82;;;2.75;;
47531;SDS011;33273;52.254;7.988;2023-09-19T00:55:07;8.95;;;2.90;;
47531;SDS011;33273;52.254;7.988;2023-09-19T00:57:34;9.52;;;3.10;;
47531;SDS011;33273;52.254;7.988;2023-09-19T01:00:02;6.40;;;3.13;;
47531;SDS011;33273;52.254;7.988;2023-09-19T01:02:33;11.23;;;3.30;;
47531;SDS011;33273;52.254;7.988;2023-09-19T01:05:00;10.98;;;3.80;;
47531;SDS011;33273;52.254;7.988;2023-09-19T01:07:26;13.25;;;4.45;;
47531;SDS011;33273;52.254;7.988;2023-09-19T01:10:17;8.60;;;3.53;;
47531;SDS011;33273;52.254;7.988;2023-09-19T01:20:49;9.25;;;3.28;;
47531;SDS011;33273;52.254;7.988;2023-09-19T01:26:26;15.55;;;3.53;;
47531;SDS011;33273;52.254;7.988;2023-09-19T01:32:03;12.73;;;3.88;;
47531;SDS011;33273;52.254;7.988;2023-09-19T01:34:46;13.60;;;3.25;;
47531;SDS011;33273;52.254;7.988;2023-09-19T01:37:29;9.93;;;3.80;;
47531;SDS011;33273;52.254;7.988;2023-09-19T01:42:43;14.52;;;4.82;;
47531;SDS011;33273;52.254;7.988;2023-09-19T01:50:48;15.82;;;3.38;;
47531;SDS011;33273;52.254;7.988;2023-09-19T01:53:27;11.15;;;3.22;;
47531;SDS011;33273;52.254;7.988;2023-09-19T01:56:12;15.88;;;3.72;;
47531;SDS011;33273;52.254;7.988;2023-09-19T01:58:48;13.88;;;3.55;;
47531;SDS011;33273;52.254;7.988;2023-09-19T02:01:16;12.82;;;3.50;;
47531;SDS011;33273;52.254;7.988;2023-09-19T02:03:47;9.05;;;4.00;;
47531;SDS011;33273;52.254;7.988;2023-09-19T02:06:15;13.93;;;3.88;;
47531;SDS011;33273;52.254;7.988;2023-09-19T02:08:42;10.23;;;3.30;;
47531;SDS011;33273;52.254;7.988;2023-09-19T02:11:10;9.75;;;3.28;;
47531;SDS011;33273;52.254;7.988;2023-09-19T02:16:03;10.30;;;3.50;;
47531;SDS011;33273;52.254;7.988;2023-09-19T02:18:30;13.52;;;3.25;;
47531;SDS011;33273;52.254;7.988;2023-09-19T02:20:56;9.32;;;2.97;;
47531;SDS011;33273;52.254;7.988;2023-09-19T02:23:24;14.55;;;4.00;;
47531;SDS011;33273;52.254;7.988;2023-09-19T02:25:53;13.25;;;3.08;;
47531;SDS011;33273;52.254;7.988;2023-09-19T02:28:20;9.82;;;3.13;;
47531;SDS011;33273;52.254;7.988;2023-09-19T02:30:47;5.15;;;3.15;;
47531;SDS011;33273;52.254;7.988;2023-09-19T02:35:44;11.98;;;3.17;;
47531;SDS011;33273;52.254;7.988;2023-09-19T02:38:11;10.98;;;3.13;;
47531;SDS011;33273;52.254;7.988;2023-09-19T02:40:37;9.48;;;3.30;;
47531;SDS011;33273;52.254;7.988;2023-09-19T02:43:03;8.20;;;3.03;;
47531;SDS011;33273;52.254;7.988;2023-09-19T02:45:30;8.38;;;2.67;;
47531;SDS011;33273;52.254;7.988;2023-09-19T02:47:57;9.57;;;3.05;;
47531;SDS011;33273;52.254;7.988;2023-09-19T02:50:23;10.50;;;3.22;;
47531;SDS011;33273;52.254;7.988;2023-09-19T02:52:49;14.43;;;3.10;;
47531;SDS011;33273;52.254;7.988;2023-09-19T02:55:16;12.02;;;3.90;;
47531;SDS011;33273;52.254;7.988;2023-09-19T02:57:47;9.68;;;2.95;;
47531;SDS011;33273;52.254;7.988;2023-09-19T03:00:18;8.45;;;2.70;;
47531;SDS011;33273;52.254;7.988;2023-09-19T03:02:52;11.32;;;3.55;;
47531;SDS011;33273;52.254;7.988;2023-09-19T03:05:20;11.05;;;3.35;;
47531;SDS011;33273;52.254;7.988;2023-09-19T03:07:47;10.82;;;2.83;;
47531;SDS011;33273;52.254;7.988;2023-09-19T03:10:16;9.57;;;3.28;;
47531;SDS011;33273;52.254;7.988;2023-09-19T03:12:43;8.70;;;2.80;;
47531;SDS011;33273;52.254;7.988;2023-09-19T03:15:09;23.05;;;3.42;;
47531;SDS011;33273;52.254;7.988;2023-09-19T03:17:35;7.40;;;2.80;;
47531;SDS011;33273;52.254;7.988;2023-09-19T03:20:02;10.75;;;3.03;;
47531;SDS011;33273;52.254;7.988;2023-09-19T03:22:34;12.07;;;3.30;;
47531;SDS011;33273;52.254;7.988;2023-09-19T03:25:00;17.20;;;4.57;;
47531;SDS011;33273;52.254;7.988;2023-09-19T03:27:26;6.78;;;3.08;;
47531;SDS011;33273;52.254;7.988;2023-09-19T03:29:52;9.68;;;3.45;;
47531;SDS011;33273;52.254;7.988;2023-09-19T03:32:19;12.25;;;3.95;;
47531;SDS011;33273;52.254;7.988;2023-09-19T03:34:45;8.40;;;3.40;;
47531;SDS011;33273;52.254;7.988;2023-09-19T03:37:14;12.30;;;3.85;;
47531;SDS011;33273;52.254;7.988;2023-09-19T03:39:40;15.07;;;2.95;;
47531;SDS011;33273;52.254;7.988;2023-09-19T03:42:06;11.77;;;3.38;;
47531;SDS011;33273;52.254;7.988;2023-09-19T03:46:59;8.38;;;3.20;;
47531;SDS011;33273;52.254;7.988;2023-09-19T03:49:26;10.18;;;3.83;;
47531;SDS011;33273;52.254;7.988;2023-09-19T03:51:52;14.43;;;3.60;;
47531;SDS011;33273;52.254;7.988;2023-09-19T03:54:18;10.25;;;2.80;;
47531;SDS011;33273;52.254;7.988;2023-09-19T03:56:45;8.57;;;3.95;;
47531;SDS011;33273;52.254;7.988;2023-09-19T03:59:10;13.23;;;4.03;;
47531;SDS011;33273;52.254;7.988;2023-09-19T04:01:37;11.50;;;3.35;;
47531;SDS011;33273;52.254;7.988;2023-09-19T04:04:03;13.80;;;3.20;;
47531;SDS011;33273;52.254;7.988;2023-09-19T04:06:35;13.88;;;3.50;;
47531;SDS011;33273;52.254;7.988;2023-09-19T04:09:02;14.20;;;4.83;;
47531;SDS011;33273;52.254;7.988;2023-09-19T04:11:32;8.07;;;3.13;;
47531;SDS011;33273;52.254;7.988;2023-09-19T04:13:58;11.13;;;3.85;;
47531;SDS011;33273;52.254;7.988;2023-09-19T04:16:25;12.68;;;3.15;;
47531;SDS011;33273;52.254;7.988;2023-09-19T04:18:51;14.13;;;3.63;;
47531;SDS011;33273;52.254;7.988;2023-09-19T04:21:17;9.90;;;3.60;;
47531;SDS011;33273;52.254;7.988;2023-09-19T04:23:45;10.80;;;3.05;;
47531;SDS011;33273;52.254;7.988;2023-09-19T04:26:10;8.43;;;2.60;;
47531;SDS011;33273;52.254;7.988;2023-09-19T04:31:04;8.68;;;3.20;;
47531;SDS011;33273;52.254;7.988;2023-09-19T04:33:29;7.97;;;2.70;;
47531;SDS011;33273;52.254;7.988;2023-09-19T04:35:55;13.80;;;3.38;;
47531;SDS011;33273;52.254;7.988;2023-09-19T04:38:21;12.70;;;2.80;;
47531;SDS011;33273;52.254;7.988;2023-09-19T04:40:47;11.63;;;3.77;;
47531;SDS011;33273;52.254;7.988;2023-09-19T04:43:13;11.70;;;3.07;;
47531;SDS011;33273;52.254;7.988;2023-09-19T04:45:40;13.18;;;3.78;;
47531;SDS011;33273;52.254;7.988;2023-09-19T04:48:06;15.17;;;3.47;;
47531;SDS011;33273;52.254;7.988;2023-09-19T04:50:32;8.47;;;3.03;;
47531;SDS011;33273;52.254;7.988;2023-09-19T04:52:59;10.43;;;3.38;;
47531;SDS011;33273;52.254;7.988;2023-09-19T04:55:25;8.13;;;2.40;;
47531;SDS011;33273;52.254;7.988;2023-09-19T16:36:13;4.18;;;1.58;;
47531;SDS011;33273;52.254;7.988;2023-09-19T16:38:42;6.50;;;1.58;;
47531;SDS011;33273;52.254;7.988;2023-09-19T16:41:11;3.53;;;1.15;;
47531;SDS011;33273;52.254;7.988;2023-09-19T16:43:42;3.72;;;1.23;;
47531;SDS011;33273;52.254;7.988;2023-09-19T16:46:11;2.42;;;1.20;;
47531;SDS011;33273;52.254;7.988;2023-09-19T16:48:48;3.90;;;1.10;;
47531;SDS011;33273;52.254;7.988;2023-09-19T16:51:16;5.25;;;1.60;;
47531;SDS011;33273;52.254;7.988;2023-09-19T16:54:03;6.75;;;1.58;;
47531;SDS011;33273;52.254;7.988;2023-09-19T16:56:31;4.45;;;1.40;;
47531;SDS011;33273;52.254;7.988;2023-09-19T16:59:03;5.65;;;1.80;;
47531;SDS011;33273;52.254;7.988;2023-09-19T17:12:56;4.20;;;1.27;;
47531;SDS011;33273;52.254;7.988;2023-09-19T17:15:22;4.87;;;2.13;;
47531;SDS011;33273;52.254;7.988;2023-09-19T17:17:49;4.70;;;1.83;;
47531;SDS011;33273;52.254;7.988;2023-09-19T17:20:16;4.82;;;1.25;;
47531;SDS011;33273;52.254;7.988;2023-09-19T17:22:43;5.20;;;1.30;;
47531;SDS011;33273;52.254;7.988;2023-09-19T17:25:10;3.95;;;1.10;;
47531;SDS011;33273;52.254;7.988;2023-09-19T17:27:37;3.78;;;1.17;;
47531;SDS011;33273;52.254;7.988;2023-09-19T17:30:06;5.10;;;1.27;;
47531;SDS011;33273;52.254;7.988;2023-09-19T17:32:36;2.97;;;1.17;;
47531;SDS011;33273;52.254;7.988;2023-09-19T17:35:02;2.88;;;1.10;;
47531;SDS011;33273;52.254;7.988;2023-09-19T17:37:29;5.93;;;1.48;;
47531;SDS011;33273;52.254;7.988;2023-09-19T17:39:58;4.57;;;1.65;;
47531;SDS011;33273;52.254;7.988;2023-09-19T17:42:27;4.15;;;1.40;;
47531;SDS011;33273;52.254;7.988;2023-09-19T17:44:53;4.38;;;1.40;;
47531;SDS011;33273;52.254;7.988;2023-09-19T17:47:19;4.93;;;1.67;;
47531;SDS011;33273;52.254;7.988;2023-09-19T17:49:47;2.83;;;0.90;;
47531;SDS011;33273;52.254;7.988;2023-09-19T17:52:16;3.15;;;1.15;;
47531;SDS011;33273;52.254;7.988;2023-09-19T17:54:43;4.60;;;1.45;;
47531;SDS011;33273;52.254;7.988;2023-09-19T17:57:10;5.22;;;1.30;;
47531;SDS011;33273;52.254;7.988;2023-09-19T17:59:36;4.65;;;1.58;;
47531;SDS011;33273;52.254;7.988;2023-09-19T18:02:02;3.50;;;1.20;;
47531;SDS011;33273;52.254;7.988;2023-09-19T18:04:28;2.58;;;1.23;;
47531;SDS011;33273;52.254;7.988;2023-09-19T18:06:54;3.17;;;1.42;;
47531;SDS011;33273;52.254;7.988;2023-09-19T18:09:20;3.73;;;1.17;;
47531;SDS011;33273;52.254;7.988;2023-09-19T18:11:46;6.32;;;1.20;;
47531;SDS011;33273;52.254;7.988;2023-09-19T18:14:13;3.40;;;1.30;;
47531;SDS011;33273;52.254;7.988;2023-09-19T18:16:43;7.38;;;1.13;;
